createdAt,value
2019-03-30T00:00:03.606Z,65.48
2019-03-30T00:02:39.318Z,65.45
2019-03-30T00:05:13.198Z,65.57
2019-03-30T00:07:47.192Z,65.78
2019-03-30T00:10:21.008Z,65.91
2019-03-30T00:12:54.952Z,65.83
2019-03-30T00:15:28.789Z,65.75
2019-03-30T00:18:02.707Z,65.85
2019-03-30T00:20:36.527Z,65.85
2019-03-30T00:23:10.298Z,65.58
2019-03-30T00:25:44.216Z,65.67
2019-03-30T00:28:18.140Z,65.65
2019-03-30T00:30:52.062Z,65.64
2019-03-30T00:33:26.416Z,65.46
2019-03-30T00:36:01.656Z,65.17
2019-03-30T00:38:35.544Z,65.06
2019-03-30T00:41:11.191Z,65.02
2019-03-30T00:43:46.341Z,65.15
2019-03-30T00:46:21.963Z,65.43
2019-03-30T00:49:05.526Z,65.83
2019-03-30T00:51:48.943Z,66.22
2019-03-30T00:54:32.306Z,66.35
2019-03-30T00:57:16.765Z,66.48
2019-03-30T01:00:01.308Z,66.36
2019-03-30T01:02:44.660Z,66.21
2019-03-30T01:05:28.130Z,66.17
2019-03-30T01:08:11.978Z,66.28
2019-03-30T01:10:47.840Z,66.20
2019-03-30T01:13:23.537Z,66.08
2019-03-30T01:16:07.227Z,66.33
2019-03-30T01:18:42.922Z,66.49
2019-03-30T01:21:18.784Z,66.69
2019-03-30T01:24:02.761Z,67.02
2019-03-30T01:26:38.365Z,66.98
2019-03-30T01:29:14.087Z,66.89
2019-03-30T01:32:02.374Z,66.91
2019-03-30T01:34:39.583Z,66.77
2019-03-30T01:37:15.478Z,67.11
2019-03-30T01:39:50.567Z,67.12
2019-03-30T01:42:36.123Z,67.12
2019-03-30T01:45:11.788Z,66.72
2019-03-30T01:47:47.419Z,66.73
2019-03-30T01:50:32.044Z,66.83
2019-03-30T01:53:07.603Z,67.10
2019-03-30T01:55:52.640Z,67.07
2019-03-30T01:58:28.285Z,67.06
2019-03-30T02:01:03.911Z,66.87
2019-03-30T02:03:39.558Z,66.74
2019-03-30T02:06:23.487Z,66.68
2019-03-30T02:09:00.046Z,66.84
2019-03-30T02:11:35.798Z,66.87
2019-03-30T02:14:11.523Z,67.28
2019-03-30T02:16:56.330Z,67.72
2019-03-30T02:19:32.437Z,67.90
2019-03-30T02:22:07.345Z,67.74
2019-03-30T02:24:41.407Z,67.91
2019-03-30T02:27:15.334Z,67.93
2019-03-30T02:29:49.383Z,67.76
2019-03-30T02:32:23.163Z,67.97
2019-03-30T02:34:57.077Z,67.82
2019-03-30T02:37:30.992Z,67.70
2019-03-30T02:40:04.981Z,67.53
2019-03-30T02:42:38.871Z,67.36
2019-03-30T02:45:12.703Z,67.50
2019-03-30T02:47:46.660Z,66.66
2019-03-30T02:50:20.994Z,66.83
2019-03-30T02:52:55.057Z,67.06
2019-03-30T02:55:29.036Z,66.71
2019-03-30T02:58:03.001Z,66.54
2019-03-30T03:00:37.460Z,66.71
2019-03-30T03:03:11.425Z,66.71
2019-03-30T03:05:45.468Z,66.45
2019-03-30T03:08:19.465Z,66.33
2019-03-30T03:10:53.458Z,66.45
2019-03-30T03:13:27.292Z,66.67
2019-03-30T03:16:01.238Z,66.77
2019-03-30T03:18:35.179Z,67.03
2019-03-30T03:21:09.213Z,67.08
2019-03-30T03:23:43.103Z,67.06
2019-03-30T03:26:17.049Z,67.22
2019-03-30T03:28:51.016Z,67.31
2019-03-30T03:31:24.959Z,68.28
2019-03-30T03:33:58.966Z,68.71
2019-03-30T03:36:32.916Z,68.64
2019-03-30T03:39:08.130Z,68.61
2019-03-30T03:41:42.110Z,68.83
2019-03-30T03:44:16.064Z,69.04
2019-03-30T03:46:50.027Z,69.17
2019-03-30T03:49:24.035Z,69.25
2019-03-30T03:51:58.070Z,69.71
2019-03-30T03:54:32.151Z,69.93
2019-03-30T03:57:06.779Z,69.45
2019-03-30T03:59:41.701Z,69.31
2019-03-30T04:02:15.743Z,69.03
2019-03-30T04:04:52.060Z,68.47
2019-03-30T04:15:13.750Z,68.48
2019-03-30T04:17:48.010Z,70.72
2019-03-30T04:20:26.644Z,69.02
2019-03-30T04:23:02.523Z,68.60
2019-03-30T04:25:36.868Z,68.50
2019-03-30T04:28:11.421Z,69.02
2019-03-30T04:30:45.610Z,69.37
2019-03-30T04:33:21.023Z,69.81
2019-03-30T04:35:55.369Z,70.21
2019-03-30T04:38:29.373Z,70.47
2019-03-30T04:41:03.856Z,70.85
2019-03-30T04:43:38.089Z,70.64
2019-03-30T04:46:15.074Z,70.98
2019-03-30T04:49:14.324Z,70.98
2019-03-30T04:51:57.938Z,70.96
2019-03-30T04:54:33.561Z,71.22
2019-03-30T04:57:17.227Z,71.15
2019-03-30T04:59:54.791Z,71.35
2019-03-30T05:03:15.109Z,71.23
2019-03-30T05:06:18.935Z,71.69
2019-03-30T05:08:58.089Z,72.00
2019-03-30T05:11:34.461Z,72.36
2019-03-30T05:14:09.880Z,72.38
2019-03-30T05:17:04.934Z,72.24
2019-03-30T05:19:41.016Z,72.12
2019-03-30T05:22:24.523Z,72.12
2019-03-30T05:25:05.402Z,71.66
2019-03-30T05:27:40.906Z,72.28
2019-03-30T05:30:19.656Z,72.32
2019-03-30T05:33:05.428Z,72.54
2019-03-30T05:35:45.033Z,72.54
2019-03-30T05:38:23.574Z,72.77
2019-03-30T05:41:10.207Z,73.04
2019-03-30T05:43:56.139Z,72.50
2019-03-30T05:46:42.724Z,72.36
2019-03-30T05:49:22.425Z,71.49
2019-03-30T05:52:03.485Z,70.03
2019-03-30T05:54:39.546Z,69.74
2019-03-30T05:57:15.673Z,69.81
2019-03-30T05:59:56.291Z,70.33
2019-03-30T06:02:36.291Z,69.59
2019-03-30T06:05:21.448Z,68.75
2019-03-30T06:08:08.897Z,68.24
2019-03-30T06:10:46.173Z,67.92
2019-03-30T06:13:28.091Z,67.97
2019-03-30T06:16:14.281Z,68.36
2019-03-30T06:18:52.648Z,68.57
2019-03-30T06:21:29.150Z,68.60
2019-03-30T06:24:06.970Z,68.29
2019-03-30T06:26:49.445Z,67.59
2019-03-30T06:29:28.970Z,67.13
2019-03-30T06:32:17.104Z,67.14
2019-03-30T06:35:18.421Z,66.32
2019-03-30T06:38:04.479Z,66.62
2019-03-30T06:40:48.375Z,66.16
2019-03-30T06:43:24.740Z,66.01
2019-03-30T06:45:58.879Z,65.49
2019-03-30T06:48:35.948Z,64.97
2019-03-30T06:51:08.837Z,64.80
2019-03-30T06:53:42.967Z,64.29
2019-03-30T06:56:17.080Z,63.87
2019-03-30T06:58:51.292Z,63.37
2019-03-30T07:01:25.425Z,63.09
2019-03-30T07:04:00.688Z,62.12
2019-03-30T07:06:35.158Z,61.71
2019-03-30T07:09:09.326Z,61.07
2019-03-30T07:11:45.276Z,60.73
2019-03-30T07:14:19.417Z,60.21
2019-03-30T07:16:54.187Z,60.71
2019-03-30T07:19:28.256Z,60.55
2019-03-30T07:22:02.290Z,60.46
2019-03-30T07:24:37.047Z,59.66
2019-03-30T07:27:11.067Z,59.07
2019-03-30T07:29:45.140Z,58.51
2019-03-30T07:32:19.467Z,58.46
2019-03-30T07:34:53.537Z,57.97
2019-03-30T07:37:27.560Z,57.59
2019-03-30T07:40:02.550Z,57.75
2019-03-30T07:42:36.543Z,56.92
2019-03-30T07:45:10.697Z,56.77
2019-03-30T07:47:45.101Z,55.79
2019-03-30T07:50:19.249Z,56.85
2019-03-30T07:52:53.279Z,55.44
2019-03-30T07:55:27.265Z,55.48
2019-03-30T07:58:01.403Z,55.21
2019-03-30T08:00:35.578Z,55.18
2019-03-30T08:03:09.632Z,55.51
2019-03-30T08:05:45.219Z,55.37
2019-03-30T08:08:19.252Z,55.17
2019-03-30T08:10:54.443Z,54.05
2019-03-30T08:13:28.676Z,53.10
2019-03-30T08:16:02.710Z,53.22
2019-03-30T08:18:36.636Z,52.98
2019-03-30T08:21:10.551Z,52.51
2019-03-30T08:23:46.937Z,52.57
2019-03-30T08:26:20.982Z,52.76
2019-03-30T08:28:55.070Z,52.68
2019-03-30T08:31:30.793Z,52.03
2019-03-30T08:34:06.119Z,51.21
2019-03-30T08:36:40.240Z,50.85
2019-03-30T08:39:14.335Z,50.17
2019-03-30T08:41:48.522Z,49.69
2019-03-30T08:44:22.824Z,49.49
2019-03-30T08:46:56.894Z,49.64
2019-03-30T08:49:30.953Z,48.61
2019-03-30T08:52:05.324Z,47.71
2019-03-30T08:55:29.812Z,48.78
2019-03-30T08:58:44.110Z,47.41
2019-03-30T09:01:36.598Z,46.98
2019-03-30T09:04:12.140Z,47.86
2019-03-30T09:06:46.327Z,47.76
2019-03-30T09:09:20.403Z,47.56
2019-03-30T09:11:54.995Z,47.41
2019-03-30T09:14:29.185Z,47.23
2019-03-30T09:17:03.295Z,46.39
2019-03-30T09:19:37.899Z,45.86
2019-03-30T09:22:11.976Z,46.96
2019-03-30T09:24:46.144Z,46.63
2019-03-30T09:27:20.230Z,45.83
2019-03-30T09:29:54.327Z,45.41
2019-03-30T09:32:29.379Z,45.35
2019-03-30T09:35:07.553Z,46.09
2019-03-30T09:37:41.690Z,46.38
2019-03-30T09:40:15.918Z,44.62
2019-03-30T09:42:49.928Z,45.76
2019-03-30T09:45:25.110Z,45.52
2019-03-30T09:47:59.324Z,44.78
2019-03-30T09:50:32.996Z,45.62
2019-03-30T09:53:06.740Z,46.32
2019-03-30T09:55:40.365Z,45.55
2019-03-30T09:58:13.982Z,45.45
2019-03-30T10:00:52.330Z,45.38
2019-03-30T10:03:25.956Z,44.68
2019-03-30T10:06:01.482Z,44.15
2019-03-30T10:08:35.115Z,43.80
2019-03-30T10:11:08.750Z,43.70
2019-03-30T10:13:42.453Z,43.48
2019-03-30T10:16:16.103Z,44.52
2019-03-30T10:18:49.734Z,43.86
2019-03-30T10:21:23.323Z,43.56
2019-03-30T10:23:56.928Z,42.84
2019-03-30T10:26:30.719Z,43.00
2019-03-30T10:29:04.279Z,42.36
2019-03-30T10:31:37.902Z,42.34
2019-03-30T10:34:12.428Z,42.24
2019-03-30T10:36:46.052Z,41.51
2019-03-30T10:39:19.706Z,41.87
2019-03-30T10:41:53.409Z,42.13
2019-03-30T10:44:26.965Z,41.80
2019-03-30T10:47:00.628Z,41.68
2019-03-30T10:49:34.290Z,41.83
2019-03-30T10:52:07.868Z,41.30
2019-03-30T10:54:51.974Z,40.86
2019-03-30T10:57:16.867Z,41.59
2019-03-30T10:59:50.850Z,41.86
2019-03-30T11:02:25.249Z,41.50
2019-03-30T11:07:54.614Z,41.62
2019-03-30T11:10:28.766Z,41.12
2019-03-30T11:13:03.200Z,41.38
2019-03-30T11:15:37.278Z,41.51
2019-03-30T11:18:11.273Z,40.41
2019-03-30T11:20:45.232Z,39.64
2019-03-30T11:23:19.098Z,40.51
2019-03-30T11:25:53.310Z,40.82
2019-03-30T11:28:27.175Z,39.95
2019-03-30T11:31:01.147Z,40.48
2019-03-30T11:33:35.252Z,39.26
2019-03-30T11:36:09.246Z,39.46
2019-03-30T11:38:43.263Z,39.43
2019-03-30T11:41:17.278Z,39.77
2019-03-30T11:43:51.323Z,39.10
2019-03-30T11:46:25.265Z,38.21
2019-03-30T11:48:59.645Z,38.36
2019-03-30T11:51:33.595Z,42.36
2019-03-30T11:54:07.760Z,38.63
2019-03-30T11:56:41.659Z,37.18
2019-03-30T11:59:15.545Z,38.06
2019-03-30T12:01:49.509Z,37.93
2019-03-30T12:04:26.019Z,38.92
2019-03-30T12:06:59.970Z,39.20
2019-03-30T12:09:33.999Z,38.49
2019-03-30T12:12:07.966Z,37.99
2019-03-30T12:14:41.920Z,37.84
2019-03-30T12:17:16.955Z,37.02
2019-03-30T12:19:51.643Z,37.77
2019-03-30T12:22:48.948Z,37.73
2019-03-30T12:25:34.894Z,38.34
2019-03-30T12:27:58.240Z,36.86
2019-03-30T12:30:32.046Z,36.92
2019-03-30T12:33:05.962Z,35.93
2019-03-30T12:35:42.027Z,37.03
2019-03-30T12:38:16.440Z,36.90
2019-03-30T12:40:51.119Z,36.16
2019-03-30T12:43:24.748Z,37.03
2019-03-30T12:45:58.491Z,36.51
2019-03-30T12:48:32.196Z,37.34
2019-03-30T12:51:05.924Z,36.57
2019-03-30T12:53:49.950Z,37.24
2019-03-30T12:56:16.211Z,37.35
2019-03-30T12:58:50.057Z,37.76
2019-03-30T13:01:23.966Z,36.16
2019-03-30T13:03:58.871Z,36.26
2019-03-30T13:06:32.846Z,37.52
2019-03-30T13:09:09.055Z,36.10
2019-03-30T13:11:42.921Z,36.98
2019-03-30T13:14:16.828Z,37.59
2019-03-30T13:16:50.929Z,36.02
2019-03-30T13:19:25.836Z,37.14
2019-03-30T13:22:00.788Z,36.88
2019-03-30T13:24:34.785Z,36.92
2019-03-30T13:27:08.850Z,37.63
2019-03-30T13:29:42.934Z,37.97
2019-03-30T13:32:18.457Z,38.18
2019-03-30T13:34:53.970Z,39.03
2019-03-30T13:37:27.760Z,38.99
2019-03-30T13:40:01.655Z,38.81
2019-03-30T13:42:35.609Z,38.25
2019-03-30T13:45:09.598Z,38.79
2019-03-30T13:47:43.429Z,38.85
2019-03-30T13:50:17.247Z,38.97
2019-03-30T13:52:51.098Z,39.04
2019-03-30T13:55:24.907Z,38.66
2019-03-30T13:57:58.914Z,38.77
2019-03-30T14:00:32.811Z,39.13
2019-03-30T14:03:06.720Z,39.58
2019-03-30T14:05:41.592Z,39.48
2019-03-30T14:08:15.577Z,39.03
2019-03-30T14:10:49.492Z,38.74
2019-03-30T14:13:24.460Z,39.37
2019-03-30T14:15:59.370Z,40.03
2019-03-30T14:18:33.403Z,40.16
2019-03-30T14:21:07.200Z,39.05
2019-03-30T14:23:43.442Z,38.11
2019-03-30T14:26:30.211Z,38.68
2019-03-30T14:28:51.693Z,39.01
2019-03-30T14:31:25.349Z,38.50
2019-03-30T14:33:59.728Z,38.87
2019-03-30T14:36:34.301Z,38.39
2019-03-30T14:39:09.159Z,37.47
2019-03-30T14:41:42.977Z,38.00
2019-03-30T14:44:17.223Z,37.48
2019-03-30T14:46:51.154Z,38.07
2019-03-30T14:49:25.289Z,38.46
2019-03-30T14:51:59.059Z,38.14
2019-03-30T14:54:32.989Z,38.24
2019-03-30T14:57:06.915Z,37.51
2019-03-30T14:59:40.825Z,37.67
2019-03-30T15:02:14.657Z,38.10
2019-03-30T15:04:48.568Z,38.04
2019-03-30T15:07:23.217Z,38.43
2019-03-30T15:09:57.176Z,38.14
2019-03-30T15:12:30.990Z,36.39
2019-03-30T15:15:05.045Z,36.45
2019-03-30T15:17:40.818Z,36.80
2019-03-30T15:20:16.209Z,37.22
2019-03-30T15:22:50.924Z,37.53
2019-03-30T15:25:24.684Z,37.63
2019-03-30T15:27:59.587Z,38.14
2019-03-30T15:30:33.927Z,38.56
2019-03-30T15:33:20.210Z,38.32
2019-03-30T15:35:53.896Z,39.15
2019-03-30T15:38:28.776Z,39.00
2019-03-30T15:41:02.947Z,39.63
2019-03-30T15:43:38.661Z,38.64
2019-03-30T15:46:14.235Z,38.42
2019-03-30T15:48:48.181Z,39.37
2019-03-30T15:51:22.035Z,38.58
2019-03-30T15:53:56.852Z,39.15
2019-03-30T15:56:31.951Z,38.99
2019-03-30T15:59:06.010Z,39.24
2019-03-30T16:01:39.897Z,39.97
2019-03-30T16:04:13.802Z,39.99
2019-03-30T16:06:47.543Z,40.41
2019-03-30T16:09:21.291Z,40.08
2019-03-30T16:11:54.974Z,40.25
2019-03-30T16:14:28.849Z,40.84
2019-03-30T16:17:02.620Z,40.84
2019-03-30T16:19:36.382Z,41.18
2019-03-30T16:22:10.187Z,42.38
2019-03-30T16:24:44.051Z,41.31
2019-03-30T16:27:28.209Z,41.57
2019-03-30T16:29:53.205Z,41.79
2019-03-30T16:32:26.927Z,41.99
2019-03-30T16:35:00.627Z,42.23
2019-03-30T16:37:35.428Z,42.03
2019-03-30T16:40:09.070Z,42.30
2019-03-30T16:42:43.996Z,42.66
2019-03-30T16:45:18.736Z,43.07
2019-03-30T16:47:52.533Z,44.08
2019-03-30T16:50:26.491Z,42.64
2019-03-30T16:53:00.501Z,42.75
2019-03-30T16:55:34.402Z,42.94
2019-03-30T16:58:08.856Z,43.41
2019-03-30T17:00:56.285Z,43.88
2019-03-30T17:03:24.244Z,44.62
2019-03-30T17:05:58.432Z,44.74
2019-03-30T17:08:32.347Z,45.41
2019-03-30T17:11:06.589Z,45.76
2019-03-30T17:13:46.644Z,46.06
2019-03-30T17:16:20.677Z,46.63
2019-03-30T17:18:54.501Z,46.52
2019-03-30T17:21:28.168Z,46.78
2019-03-30T17:24:15.872Z,47.24
2019-03-30T17:26:49.782Z,47.50
2019-03-30T17:29:23.616Z,47.44
2019-03-30T17:31:57.415Z,48.09
2019-03-30T17:34:31.233Z,48.34
2019-03-30T17:37:05.326Z,48.52
2019-03-30T17:39:40.311Z,48.92
2019-03-30T17:42:14.098Z,49.09
2019-03-30T17:44:47.960Z,49.25
2019-03-30T17:47:21.701Z,50.00
2019-03-30T17:50:12.758Z,49.87
2019-03-30T17:52:46.909Z,50.14
2019-03-30T17:55:33.008Z,50.10
2019-03-30T17:57:56.448Z,50.63
2019-03-30T18:00:30.287Z,50.92
2019-03-30T18:03:04.110Z,50.96
2019-03-30T18:05:37.817Z,50.81
2019-03-30T18:08:12.383Z,51.04
2019-03-30T18:10:46.123Z,51.36
2019-03-30T18:13:20.208Z,51.84
2019-03-30T18:15:54.169Z,51.68
2019-03-30T18:18:28.002Z,51.55
2019-03-30T18:21:01.780Z,51.77
2019-03-30T18:23:35.583Z,52.15
2019-03-30T18:26:09.478Z,52.17
2019-03-30T18:28:43.289Z,52.69
2019-03-30T18:31:17.227Z,52.86
2019-03-30T18:33:51.002Z,53.11
2019-03-30T18:36:33.530Z,53.45
2019-03-30T18:39:13.048Z,53.57
2019-03-30T18:41:47.445Z,53.67
2019-03-30T18:44:21.414Z,53.62
2019-03-30T18:46:55.265Z,53.62
2019-03-30T18:49:31.122Z,54.26
2019-03-30T18:52:08.583Z,54.30
2019-03-30T18:54:43.151Z,54.55
2019-03-30T18:57:17.122Z,54.56
2019-03-30T18:59:51.008Z,54.67
2019-03-30T19:02:24.941Z,55.03
2019-03-30T19:04:58.909Z,55.06
2019-03-30T19:07:33.851Z,55.08
2019-03-30T19:10:08.236Z,55.12
2019-03-30T19:12:45.065Z,55.37
2019-03-30T19:15:23.045Z,55.32
2019-03-30T19:17:57.198Z,55.82
2019-03-30T19:20:31.144Z,56.38
2019-03-30T19:23:05.046Z,56.38
2019-03-30T19:25:38.870Z,56.60
2019-03-30T19:28:14.227Z,56.96
2019-03-30T19:30:48.156Z,57.09
2019-03-30T19:33:22.359Z,57.02
2019-03-30T19:35:58.951Z,57.45
2019-03-30T19:38:34.013Z,57.54
2019-03-30T19:41:07.933Z,57.55
2019-03-30T19:43:41.745Z,57.50
2019-03-30T19:46:16.830Z,58.11
2019-03-30T19:48:50.770Z,58.08
2019-03-30T19:51:24.598Z,58.01
2019-03-30T19:54:00.143Z,58.07
2019-03-30T19:56:34.752Z,58.06
2019-03-30T19:59:11.027Z,58.02
2019-03-30T20:01:44.923Z,57.99
2019-03-30T20:04:19.463Z,57.92
2019-03-30T20:06:53.386Z,57.86
2019-03-30T20:09:27.195Z,57.76
2019-03-30T20:12:02.850Z,57.91
2019-03-30T20:14:36.736Z,58.46
2019-03-30T20:17:11.011Z,58.79
2019-03-30T20:19:44.806Z,59.14
2019-03-30T20:22:18.703Z,59.25
2019-03-30T20:24:55.653Z,59.44
2019-03-30T20:27:29.543Z,59.44
2019-03-30T20:30:03.896Z,59.44
2019-03-30T20:32:38.267Z,60.18
2019-03-30T20:35:12.347Z,60.28
2019-03-30T20:37:46.506Z,60.38
2019-03-30T20:40:20.931Z,60.24
2019-03-30T20:42:55.104Z,60.18
2019-03-30T20:45:29.352Z,60.16
2019-03-30T20:48:04.101Z,60.34
2019-03-30T20:50:38.467Z,60.78
2019-03-30T20:53:12.952Z,61.10
2019-03-30T20:55:47.520Z,61.28
2019-03-30T20:58:21.588Z,61.62
2019-03-30T21:00:55.572Z,61.80
2019-03-30T21:03:29.936Z,61.99
2019-03-30T21:06:04.480Z,61.64
2019-03-30T21:08:38.515Z,61.28
2019-03-30T21:11:12.757Z,61.94
2019-03-30T21:13:46.785Z,61.35
2019-03-30T21:16:21.009Z,61.47
2019-03-30T21:18:54.912Z,61.83
2019-03-30T21:21:29.265Z,61.94
2019-03-30T21:24:03.356Z,61.88
2019-03-30T21:26:38.415Z,62.05
2019-03-30T21:29:12.534Z,62.02
2019-03-30T21:31:49.277Z,62.42
2019-03-30T21:34:22.106Z,62.28
2019-03-30T21:36:56.054Z,62.45
2019-03-30T21:39:29.987Z,62.41
2019-03-30T21:42:04.055Z,62.46
2019-03-30T21:44:37.816Z,62.93
2019-03-30T21:47:11.552Z,62.77
2019-03-30T21:49:45.197Z,62.64
2019-03-30T21:52:18.898Z,62.53
2019-03-30T21:54:52.541Z,62.57
2019-03-30T21:57:26.227Z,62.81
2019-03-30T22:00:09.918Z,62.81
2019-03-30T22:02:36.892Z,62.61
2019-03-30T22:05:10.633Z,62.62
2019-03-30T22:07:44.438Z,62.86
2019-03-30T22:10:27.814Z,63.04
2019-03-30T22:13:01.521Z,62.94
2019-03-30T22:15:35.161Z,62.83
2019-03-30T22:18:08.776Z,62.88
2019-03-30T22:20:42.421Z,63.19
2019-03-30T22:23:16.097Z,63.24
2019-03-30T22:25:49.750Z,63.47
2019-03-30T22:28:24.524Z,63.18
2019-03-30T22:30:58.110Z,63.33
2019-03-30T22:33:31.717Z,63.16
2019-03-30T22:36:05.367Z,63.38
2019-03-30T22:38:39.103Z,63.19
2019-03-30T22:41:12.753Z,63.13
2019-03-30T22:43:46.390Z,63.34
2019-03-30T22:46:20.311Z,63.31
2019-03-30T22:48:53.930Z,63.57
2019-03-30T22:51:27.575Z,63.73
2019-03-30T22:54:01.197Z,63.85
2019-03-30T22:56:34.840Z,63.87
2019-03-30T22:59:08.519Z,63.87
2019-03-30T23:01:42.093Z,63.86
2019-03-30T23:04:15.896Z,64.43
2019-03-30T23:06:49.555Z,64.34
2019-03-30T23:09:23.216Z,64.33
2019-03-30T23:11:56.787Z,64.19
2019-03-30T23:14:30.421Z,63.88
2019-03-30T23:17:04.163Z,63.85
2019-03-30T23:19:37.938Z,63.92
2019-03-30T23:22:11.617Z,63.74
2019-03-30T23:24:45.291Z,63.75
2019-03-30T23:27:18.973Z,63.75
2019-03-30T23:29:52.769Z,64.02
2019-03-30T23:32:26.577Z,64.55
2019-03-30T23:35:00.767Z,64.71
2019-03-30T23:37:34.585Z,64.78
2019-03-30T23:40:08.832Z,64.58
2019-03-30T23:42:42.754Z,64.42
2019-03-30T23:45:17.454Z,64.13
2019-03-30T23:47:51.403Z,64.06
2019-03-30T23:50:25.252Z,64.21
2019-03-30T23:52:59.102Z,64.06
2019-03-30T23:55:33.078Z,64.17
2019-03-30T23:58:06.979Z,64.69
